Time;durP1;ratioP1;P1;durP2;ratioP2;P2;SDS_P1;SDS_P2;PMS_P1;PMS_P2;Temp;Humidity;BMP_temperature;BMP_pressure;BME280_temperature;BME280_humidity;BME280_pressure;Samples;Min_cycle;Max_cycle;Signal;HPM_P1;HPM_P2
2022/07/07 00:02:27;;;;;;;12.23;2.70;;;16.70;99.90;;;;;;5054950;28;20483;-75
2022/07/07 00:04:54;;;;;;;11.20;2.90;;;16.60;99.90;;;;;;5054458;28;20580;-75
2022/07/07 00:07:20;;;;;;;4.53;2.40;;;16.60;99.90;;;;;;5054639;28;20446;-75
2022/07/07 00:09:47;;;;;;;2.87;1.80;;;16.30;99.90;;;;;;5055268;28;20815;-73
2022/07/07 00:12:14;;;;;;;2.93;1.73;;;16.60;99.90;;;;;;5054338;28;20514;-74
2022/07/07 00:14:41;;;;;;;2.07;1.87;;;16.60;99.90;;;;;;5054308;28;20445;-75
2022/07/07 00:17:07;;;;;;;1.80;1.30;;;16.70;99.90;;;;;;5054300;28;20548;-75
2022/07/07 00:19:36;;;;;;;4.00;1.57;;;16.60;99.90;;;;;;5054210;28;20480;-75
2022/07/07 00:22:03;;;;;;;1.47;1.37;;;16.60;99.90;;;;;;5054127;28;20801;-75
2022/07/07 00:24:30;;;;;;;1.60;1.50;;;16.60;99.90;;;;;;5053999;28;20513;-75
2022/07/07 00:26:57;;;;;;;2.07;1.53;;;16.60;99.90;;;;;;5054920;28;20456;-75
2022/07/07 00:29:24;;;;;;;1.60;1.30;;;16.60;99.90;;;;;;5054503;28;20450;-75
2022/07/07 00:31:50;;;;;;;6.07;1.60;;;16.60;99.90;;;;;;5054003;28;20556;-76
2022/07/07 00:34:17;;;;;;;1.60;1.50;;;16.60;99.90;;;;;;5054035;28;20453;-75
2022/07/07 00:36:47;;;;;;;1.43;1.20;;;16.60;99.90;;;;;;5054432;28;20485;-75
2022/07/07 00:39:13;;;;;;;9.90;1.50;;;16.60;99.90;;;;;;5055843;28;20446;-75
2022/07/07 00:41:41;;;;;;;1.67;1.30;;;16.60;99.90;;;;;;5057073;28;20477;-75
2022/07/07 00:44:13;;;;;;;2.53;1.60;;;16.60;99.90;;;;;;5054557;28;20482;-74
2022/07/07 00:46:45;;;;;;;2.20;1.87;;;16.60;99.90;;;;;;5053900;28;20969;-74
2022/07/07 00:49:13;;;;;;;1.90;1.70;;;16.60;99.90;;;;;;5053656;28;20503;-75
2022/07/07 00:51:41;;;;;;;2.03;1.37;;;16.70;99.90;;;;;;5053207;28;21005;-74
2022/07/07 00:54:10;;;;;;;4.10;1.20;;;16.60;99.90;;;;;;5053112;28;20933;-76
2022/07/07 00:56:38;;;;;;;2.20;1.47;;;16.60;99.90;;;;;;5053565;28;20450;-75
2022/07/07 00:59:07;;;;;;;3.17;1.40;;;16.60;99.90;;;;;;5053319;28;20453;-74
2022/07/07 01:01:35;;;;;;;1.90;1.40;;;16.50;99.90;;;;;;5053416;28;20891;-74
2022/07/07 01:04:03;;;;;;;2.80;1.40;;;16.50;99.90;;;;;;5053502;28;20489;-75
2022/07/07 01:06:31;;;;;;;1.40;1.30;;;16.60;99.90;;;;;;5053470;28;20449;-74
2022/07/07 01:08:59;;;;;;;1.83;1.43;;;16.60;99.90;;;;;;5053374;28;20488;-74
2022/07/07 01:11:27;;;;;;;3.10;1.60;;;16.70;99.90;;;;;;5052704;28;20466;-76
2022/07/07 01:13:54;;;;;;;4.03;1.70;;;16.70;99.90;;;;;;5053361;28;20452;-75
2022/07/07 01:16:21;;;;;;;1.50;1.33;;;16.70;99.90;;;;;;5053162;28;20500;-75
2022/07/07 01:18:47;;;;;;;3.00;1.13;;;16.70;99.90;;;;;;5053766;28;20449;-75
2022/07/07 01:21:18;;;;;;;2.83;1.40;;;16.70;99.90;;;;;;5053190;28;20952;-75
2022/07/07 01:23:46;;;;;;;2.53;1.47;;;16.70;99.90;;;;;;5052781;28;20477;-75
2022/07/07 01:26:13;;;;;;;1.23;1.13;;;16.80;99.90;;;;;;5053110;28;20457;-76
2022/07/07 01:28:41;;;;;;;3.67;1.10;;;16.60;99.90;;;;;;5053184;28;20450;-75
2022/07/07 01:31:08;;;;;;;1.70;1.43;;;16.50;99.90;;;;;;5052995;28;20891;-76
2022/07/07 01:33:35;;;;;;;3.40;1.30;;;16.40;99.90;;;;;;5053128;28;20445;-75
2022/07/07 01:36:02;;;;;;;1.60;1.43;;;16.30;99.90;;;;;;5053401;28;20455;-75
2022/07/07 01:38:28;;;;;;;2.17;1.40;;;16.20;99.90;;;;;;5052844;28;21021;-74
2022/07/07 01:40:56;;;;;;;3.87;1.73;;;16.10;99.90;;;;;;5052746;28;21056;-74
2022/07/07 01:43:23;;;;;;;1.30;1.20;;;15.90;99.90;;;;;;5052975;28;20933;-74
2022/07/07 01:45:50;;;;;;;2.50;1.10;;;15.80;99.90;;;;;;5052453;28;20457;-75
2022/07/07 01:48:17;;;;;;;2.83;1.17;;;15.70;99.90;;;;;;5052413;28;20944;-75
2022/07/07 01:50:43;;;;;;;4.43;1.50;;;15.70;99.90;;;;;;5052613;28;20484;-75
2022/07/07 01:53:10;;;;;;;2.00;1.20;;;15.50;99.90;;;;;;5052753;28;20452;-75
2022/07/07 01:55:37;;;;;;;2.60;1.47;;;15.40;99.90;;;;;;5052219;28;20449;-75
2022/07/07 01:58:05;;;;;;;2.17;1.40;;;15.20;99.90;;;;;;5052615;28;20452;-75
2022/07/07 02:00:31;;;;;;;2.50;1.70;;;15.10;99.90;;;;;;5052377;28;20465;-75
2022/07/07 02:02:58;;;;;;;1.67;1.40;;;15.10;99.90;;;;;;5052515;28;20824;-76
2022/07/07 02:05:25;;;;;;;2.03;1.33;;;15.00;99.90;;;;;;5052502;28;20484;-76
2022/07/07 02:07:51;;;;;;;2.90;1.80;;;15.00;99.90;;;;;;5052523;28;20453;-75
2022/07/07 02:11:12;;;;;;;1.63;1.50;;;15.00;99.90;;;;;;5052352;28;20474;-75
2022/07/07 02:13:06;;;;;;;1.40;1.30;;;15.00;99.90;;;;;;5052095;28;20480;-75
2022/07/07 02:15:33;;;;;;;1.67;1.40;;;14.80;99.90;;;;;;5052498;28;20495;-75
2022/07/07 02:18:00;;;;;;;2.10;1.90;;;14.80;99.90;;;;;;5052371;28;20450;-75
2022/07/07 02:20:27;;;;;;;2.03;1.83;;;14.80;99.90;;;;;;5051943;28;20996;-75
2022/07/07 02:22:53;;;;;;;2.77;2.00;;;14.60;99.90;;;;;;5053400;28;20441;-75
2022/07/07 02:25:20;;;;;;;1.90;1.80;;;14.60;99.90;;;;;;5056057;28;20848;-75
2022/07/07 02:27:47;;;;;;;1.57;1.47;;;14.50;99.90;;;;;;5056435;28;20454;-75
2022/07/07 02:30:15;;;;;;;1.80;1.70;;;14.50;99.90;;;;;;5056799;28;20560;-75
2022/07/07 02:32:42;;;;;;;2.40;1.93;;;14.50;99.90;;;;;;5057380;28;20456;-75
2022/07/07 02:35:09;;;;;;;2.30;2.07;;;14.50;99.90;;;;;;5056380;28;20481;-75
2022/07/07 02:37:36;;;;;;;8.67;2.80;;;14.50;99.90;;;;;;5056566;28;20446;-76
2022/07/07 02:40:03;;;;;;;3.43;2.20;;;14.40;99.90;;;;;;5056009;28;20485;-75
2022/07/07 02:42:30;;;;;;;4.50;2.43;;;14.60;99.90;;;;;;5056146;28;20445;-75
2022/07/07 02:44:57;;;;;;;3.07;2.80;;;14.50;99.90;;;;;;5056104;28;20477;-75
2022/07/07 02:47:25;;;;;;;4.77;2.93;;;14.50;99.90;;;;;;5055972;28;20453;-74
2022/07/07 02:49:52;;;;;;;4.03;2.70;;;14.80;99.90;;;;;;5055284;28;20943;-74
2022/07/07 02:52:19;;;;;;;5.50;2.67;;;14.60;99.90;;;;;;5056226;28;20441;-74
2022/07/07 02:54:46;;;;;;;6.80;3.07;;;14.60;99.90;;;;;;5056191;28;20458;-75
2022/07/07 02:57:13;;;;;;;5.63;2.90;;;14.50;99.90;;;;;;5056340;28;20495;-74
2022/07/07 02:59:39;;;;;;;4.50;2.50;;;14.40;99.90;;;;;;5055920;28;20468;-74
2022/07/07 03:02:06;;;;;;;4.40;3.20;;;14.40;99.90;;;;;;5055720;28;20955;-75
2022/07/07 03:04:34;;;;;;;5.10;3.10;;;14.40;99.90;;;;;;5055883;28;21002;-75
2022/07/07 03:07:01;;;;;;;3.67;3.10;;;14.40;99.90;;;;;;5056121;28;20450;-74
2022/07/07 03:09:28;;;;;;;2.67;2.37;;;14.30;99.90;;;;;;5055877;28;20825;-74
2022/07/07 03:11:54;;;;;;;7.00;3.50;;;14.10;99.90;;;;;;5055804;28;20544;-74
2022/07/07 03:14:21;;;;;;;4.00;3.30;;;14.10;99.90;;;;;;5055596;28;20927;-74
2022/07/07 03:16:48;;;;;;;11.83;4.80;;;14.20;99.90;;;;;;5055564;28;20445;-74
2022/07/07 03:19:14;;;;;;;5.60;3.87;;;14.20;99.90;;;;;;5055170;28;20441;-74
2022/07/07 03:21:42;;;;;;;3.43;2.73;;;14.10;99.90;;;;;;5057828;28;20476;-74
2022/07/07 03:24:09;;;;;;;3.80;3.23;;;14.00;99.90;;;;;;5056576;28;20863;-75
2022/07/07 03:26:37;;;;;;;4.80;3.17;;;13.90;99.90;;;;;;5055642;28;20454;-75
2022/07/07 03:29:03;;;;;;;3.83;3.00;;;14.00;99.90;;;;;;5055590;28;20810;-74
2022/07/07 03:31:30;;;;;;;3.73;3.43;;;14.00;99.90;;;;;;5055339;28;20470;-74
2022/07/07 03:33:57;;;;;;;6.03;2.93;;;13.90;99.90;;;;;;5054487;28;20450;-74
2022/07/07 03:36:24;;;;;;;5.07;3.17;;;13.90;99.90;;;;;;5054753;28;20893;-74
2022/07/07 03:38:52;;;;;;;3.40;2.80;;;13.80;99.90;;;;;;5055007;28;20450;-75
2022/07/07 03:41:19;;;;;;;5.40;3.40;;;13.90;99.90;;;;;;5054869;28;20473;-75
2022/07/07 03:43:45;;;;;;;5.63;3.20;;;13.90;99.90;;;;;;5054892;28;20452;-74
2022/07/07 03:46:12;;;;;;;3.57;3.03;;;14.00;99.90;;;;;;5054492;28;20968;-75
2022/07/07 03:48:39;;;;;;;4.00;3.07;;;13.90;99.90;;;;;;5054850;28;20450;-74
2022/07/07 03:51:06;;;;;;;5.90;3.20;;;13.90;99.90;;;;;;5076477;22;20488;-75
2022/07/07 03:53:33;;;;;;;4.20;3.20;;;13.80;99.90;;;;;;5075470;28;20458;-76
2022/07/07 03:56:01;;;;;;;3.40;3.13;;;13.80;99.90;;;;;;5075232;28;20449;-75
2022/07/07 03:58:28;;;;;;;3.00;2.80;;;13.70;99.90;;;;;;5074823;28;20971;-75
2022/07/07 04:00:55;;;;;;;6.33;3.40;;;13.80;99.90;;;;;;5075328;28;20464;-76
2022/07/07 04:03:22;;;;;;;4.37;4.07;;;13.80;99.90;;;;;;5075226;28;20457;-74
2022/07/07 04:05:48;;;;;;;4.00;3.70;;;13.90;99.90;;;;;;5075262;28;20477;-75
2022/07/07 04:08:15;;;;;;;4.10;3.63;;;14.00;99.90;;;;;;5074984;28;20451;-74
2022/07/07 04:10:42;;;;;;;5.20;3.23;;;13.90;99.90;;;;;;5075680;28;20464;-73
2022/07/07 04:13:10;;;;;;;4.30;3.90;;;13.90;99.90;;;;;;5075036;28;20777;-75
2022/07/07 04:15:37;;;;;;;5.97;4.57;;;13.90;99.90;;;;;;5074919;28;20426;-74
2022/07/07 04:18:04;;;;;;;11.70;4.70;;;13.90;99.90;;;;;;5074878;28;20449;-75
2022/07/07 04:20:31;;;;;;;4.20;3.70;;;13.90;99.90;;;;;;5074381;28;20987;-75
2022/07/07 04:22:58;;;;;;;4.80;4.00;;;13.90;99.90;;;;;;5074408;28;20460;-75
2022/07/07 04:25:25;;;;;;;4.30;3.90;;;13.90;99.90;;;;;;5074558;28;20480;-74
2022/07/07 04:27:51;;;;;;;5.73;4.63;;;13.90;99.90;;;;;;5074621;28;20445;-75
2022/07/07 04:30:19;;;;;;;7.47;4.60;;;14.00;99.90;;;;;;5074657;28;20445;-74
2022/07/07 04:32:46;;;;;;;6.20;4.33;;;13.90;99.90;;;;;;5074462;28;20463;-74
2022/07/07 04:35:13;;;;;;;4.27;3.97;;;13.90;99.90;;;;;;5074169;28;20445;-74
2022/07/07 04:37:40;;;;;;;4.27;3.93;;;14.00;99.90;;;;;;5075470;28;20506;-74
2022/07/07 04:40:07;;;;;;;4.20;3.80;;;13.90;99.90;;;;;;5075896;28;20455;-74
2022/07/07 04:42:34;;;;;;;8.30;4.50;;;13.80;99.90;;;;;;5075298;28;20456;-74
2022/07/07 04:45:01;;;;;;;4.40;3.90;;;13.90;99.90;;;;;;5074449;28;20484;-74
2022/07/07 04:47:29;;;;;;;5.10;4.27;;;13.90;99.90;;;;;;5074160;28;20449;-73
2022/07/07 04:49:56;;;;;;;3.90;3.70;;;13.90;99.90;;;;;;5074504;28;20854;-74
2022/07/07 04:52:22;;;;;;;4.73;4.33;;;14.00;99.90;;;;;;5073865;28;20481;-75
2022/07/07 04:54:49;;;;;;;6.00;4.90;;;13.90;99.90;;;;;;5074236;28;20472;-75
2022/07/07 04:57:16;;;;;;;4.90;4.40;;;14.00;99.90;;;;;;5074213;28;20796;-74
2022/07/07 04:59:43;;;;;;;11.70;5.80;;;13.90;99.90;;;;;;5074005;28;20448;-74
2022/07/07 05:02:09;;;;;;;4.93;4.43;;;14.00;99.90;;;;;;5073132;28;20434;-74
2022/07/07 05:04:37;;;;;;;5.13;4.73;;;14.00;99.90;;;;;;5073895;28;20226;-74
2022/07/07 05:07:05;;;;;;;5.83;5.13;;;14.00;99.90;;;;;;5073750;28;20427;-74
2022/07/07 05:09:31;;;;;;;9.47;5.37;;;14.00;99.90;;;;;;5074093;28;20812;-75
2022/07/07 05:11:58;;;;;;;5.17;4.73;;;14.00;99.90;;;;;;5073757;28;20469;-74
2022/07/07 05:14:25;;;;;;;4.43;4.13;;;14.10;99.90;;;;;;5073572;28;20445;-74
2022/07/07 05:16:51;;;;;;;5.50;5.00;;;14.00;99.90;;;;;;5073719;28;20457;-75
2022/07/07 05:19:18;;;;;;;6.17;5.57;;;14.00;99.90;;;;;;5074122;28;20445;-74
2022/07/07 05:21:46;;;;;;;6.10;5.50;;;14.10;99.90;;;;;;5073586;28;20839;-74
2022/07/07 05:24:13;;;;;;;6.20;5.80;;;14.20;99.90;;;;;;5073298;28;20445;-74
2022/07/07 05:26:40;;;;;;;6.33;5.50;;;14.10;99.90;;;;;;5073105;28;20981;-74
2022/07/07 05:29:07;;;;;;;6.10;5.53;;;14.10;99.90;;;;;;5073592;28;20452;-74
2022/07/07 05:31:33;;;;;;;7.23;6.63;;;14.20;99.90;;;;;;5073329;28;20469;-75
2022/07/07 05:34:00;;;;;;;9.90;8.90;;;14.10;99.90;;;;;;5073483;28;20449;-73
2022/07/07 05:36:27;;;;;;;7.40;5.40;;;14.10;99.90;;;;;;5073526;28;20816;-73
2022/07/07 05:38:55;;;;;;;8.47;7.10;;;14.10;99.90;;;;;;5073519;28;20445;-73
2022/07/07 05:41:21;;;;;;;5.77;5.37;;;14.20;99.90;;;;;;5073043;28;20958;-73
2022/07/07 05:43:49;;;;;;;11.57;6.00;;;14.10;99.90;;;;;;5073280;28;20473;-73
2022/07/07 05:46:15;;;;;;;6.23;5.47;;;14.00;99.90;;;;;;5073672;28;20508;-75
2022/07/07 05:48:42;;;;;;;11.30;6.40;;;14.00;99.90;;;;;;5072835;28;20453;-75
2022/07/07 05:51:09;;;;;;;6.43;5.40;;;14.20;99.90;;;;;;5073032;28;20480;-75
2022/07/07 05:53:36;;;;;;;5.70;5.17;;;14.20;99.90;;;;;;5073052;28;20948;-74
2022/07/07 05:56:05;;;;;;;6.57;5.30;;;14.10;99.90;;;;;;5073499;28;20547;-75
2022/07/07 05:58:32;;;;;;;8.83;6.30;;;14.10;99.90;;;;;;5073166;28;20539;-75
2022/07/07 06:00:59;;;;;;;6.87;6.17;;;14.10;99.90;;;;;;5073035;28;20472;-75
2022/07/07 06:03:25;;;;;;;6.60;5.97;;;14.10;99.90;;;;;;5072710;28;20449;-74
2022/07/07 06:05:52;;;;;;;6.60;5.87;;;14.10;99.90;;;;;;5072991;28;20487;-75
2022/07/07 06:08:19;;;;;;;7.20;6.53;;;14.10;99.90;;;;;;5073116;28;20448;-74
2022/07/07 06:10:46;;;;;;;10.37;6.90;;;14.10;99.90;;;;;;5073122;28;20473;-74
2022/07/07 06:13:14;;;;;;;10.60;6.47;;;14.10;99.90;;;;;;5073056;28;20448;-74
2022/07/07 06:15:41;;;;;;;6.70;5.90;;;14.20;99.90;;;;;;5073690;28;20441;-74
2022/07/07 06:18:07;;;;;;;8.47;7.77;;;14.20;99.90;;;;;;5073046;28;20456;-74
2022/07/07 06:20:34;;;;;;;7.00;6.30;;;14.20;99.90;;;;;;5073004;28;20468;-74
2022/07/07 06:23:01;;;;;;;8.80;6.70;;;14.10;99.90;;;;;;5073167;28;20444;-74
2022/07/07 06:25:27;;;;;;;8.03;7.23;;;14.20;99.90;;;;;;5073532;28;20480;-75
2022/07/07 06:27:54;;;;;;;8.70;7.33;;;14.20;99.90;;;;;;5072572;28;20445;-75
2022/07/07 06:30:23;;;;;;;8.37;7.50;;;14.20;99.90;;;;;;5073870;28;20452;-74
2022/07/07 06:32:50;;;;;;;10.73;7.67;;;14.10;99.90;;;;;;5073155;28;20452;-75
2022/07/07 06:35:17;;;;;;;10.63;9.37;;;14.10;99.90;;;;;;5073053;28;20452;-74
2022/07/07 06:37:44;;;;;;;8.20;7.50;;;14.10;99.90;;;;;;5072817;28;20539;-74
2022/07/07 06:40:11;;;;;;;8.80;7.73;;;14.00;99.90;;;;;;5072705;28;20448;-74
2022/07/07 06:42:38;;;;;;;8.77;7.83;;;14.10;99.90;;;;;;5072532;28;20452;-74
2022/07/07 06:45:06;;;;;;;11.67;10.10;;;14.30;99.90;;;;;;5073103;28;20484;-74
2022/07/07 06:47:35;;;;;;;10.40;9.40;;;14.20;99.90;;;;;;5072691;28;20861;-74
2022/07/07 06:50:01;;;;;;;9.03;8.13;;;14.20;99.90;;;;;;5072371;28;20459;-74
2022/07/07 06:52:28;;;;;;;8.93;8.23;;;14.20;99.90;;;;;;5072353;28;20554;-74
2022/07/07 06:54:55;;;;;;;9.37;8.03;;;14.30;99.90;;;;;;5073319;28;20543;-76
2022/07/07 06:57:22;;;;;;;8.87;7.97;;;14.30;99.90;;;;;;5072590;28;20548;-75
2022/07/07 06:59:49;;;;;;;8.97;8.07;;;14.30;99.90;;;;;;5073068;28;20445;-75
2022/07/07 07:02:15;;;;;;;8.40;7.70;;;14.30;99.90;;;;;;5073344;28;20904;-75
2022/07/07 07:04:43;;;;;;;7.40;6.70;;;14.40;99.90;;;;;;5073693;28;20445;-75
2022/07/07 07:07:10;;;;;;;6.90;6.30;;;14.30;99.90;;;;;;5073118;28;21029;-75
2022/07/07 07:09:37;;;;;;;7.30;6.70;;;14.30;99.90;;;;;;5074545;28;20448;-74
2022/07/07 07:12:04;;;;;;;7.47;6.90;;;14.30;99.90;;;;;;5075891;28;21026;-75
2022/07/07 07:14:32;;;;;;;6.00;5.60;;;14.40;99.90;;;;;;5076312;28;20540;-74
2022/07/07 07:16:58;;;;;;;7.10;6.60;;;14.20;99.90;;;;;;5076158;28;20429;-74
2022/07/07 07:19:25;;;;;;;7.10;6.40;;;14.30;99.90;;;;;;5076386;28;20430;-78
2022/07/07 07:21:53;;;;;;;6.73;6.13;;;14.40;99.90;;;;;;5075839;28;20487;-77
2022/07/07 07:24:20;;;;;;;8.00;5.90;;;14.40;99.90;;;;;;5076690;28;20429;-77
2022/07/07 07:26:47;;;;;;;6.80;6.30;;;14.50;99.90;;;;;;5075454;28;20465;-77
2022/07/07 07:29:14;;;;;;;6.10;5.70;;;14.50;99.90;;;;;;5075849;28;20531;-77
2022/07/07 07:31:41;;;;;;;6.57;6.10;;;14.50;99.90;;;;;;5075446;28;20846;-76
2022/07/07 07:34:08;;;;;;;5.70;5.30;;;14.50;99.90;;;;;;5075658;28;20445;-76
2022/07/07 07:36:34;;;;;;;6.23;5.63;;;14.50;99.90;;;;;;5075796;28;20440;-75
2022/07/07 07:39:03;;;;;;;7.10;6.50;;;14.60;99.90;;;;;;5075634;28;20448;-75
2022/07/07 07:41:29;;;;;;;5.60;5.20;;;14.60;99.90;;;;;;5075547;28;20472;-75
2022/07/07 07:43:56;;;;;;;6.27;5.77;;;14.50;99.90;;;;;;5075650;28;20452;-76
2022/07/07 07:46:23;;;;;;;5.70;5.30;;;14.60;99.90;;;;;;5075519;28;20492;-74
2022/07/07 07:48:49;;;;;;;6.23;5.80;;;14.60;99.90;;;;;;5075357;28;20463;-76
2022/07/07 07:51:16;;;;;;;7.17;6.57;;;14.80;99.90;;;;;;5075459;28;20480;-75
2022/07/07 07:53:43;;;;;;;6.97;6.40;;;14.70;99.90;;;;;;5075246;28;20818;-74
2022/07/07 07:56:11;;;;;;;6.43;6.03;;;14.70;99.90;;;;;;5075384;28;20452;-75
2022/07/07 07:58:38;;;;;;;7.80;7.20;;;14.70;99.90;;;;;;5075193;28;20457;-75
2022/07/07 08:01:05;;;;;;;6.67;6.17;;;14.70;99.90;;;;;;5074690;28;20991;-75
2022/07/07 08:03:32;;;;;;;9.03;8.27;;;14.80;99.90;;;;;;5075118;28;20821;-75
2022/07/07 08:05:58;;;;;;;8.00;7.50;;;14.80;99.90;;;;;;5075142;28;20496;-75
2022/07/07 08:08:25;;;;;;;7.83;7.03;;;14.90;99.90;;;;;;5075089;28;20445;-75
2022/07/07 08:10:52;;;;;;;9.53;8.63;;;14.90;99.90;;;;;;5075230;28;20843;-74
2022/07/07 08:13:21;;;;;;;8.27;7.37;;;14.90;99.90;;;;;;5077161;28;20449;-75
2022/07/07 08:15:48;;;;;;;7.57;6.97;;;15.00;99.90;;;;;;5076544;28;20449;-75
2022/07/07 08:18:15;;;;;;;8.00;7.40;;;15.00;99.90;;;;;;5076178;28;20525;-75
2022/07/07 08:20:41;;;;;;;6.63;6.13;;;15.00;99.90;;;;;;5074855;28;20464;-74
2022/07/07 08:23:08;;;;;;;6.50;6.00;;;15.10;99.90;;;;;;5074415;28;20456;-75
2022/07/07 08:25:35;;;;;;;6.23;5.83;;;15.10;99.90;;;;;;5075043;28;20484;-75
2022/07/07 08:28:02;;;;;;;6.50;6.10;;;15.10;99.90;;;;;;5075282;28;20444;-76
2022/07/07 08:30:30;;;;;;;6.10;5.60;;;15.00;99.90;;;;;;5074908;28;20852;-74
2022/07/07 08:32:56;;;;;;;6.93;6.43;;;15.10;99.90;;;;;;5076084;28;20457;-74
2022/07/07 08:35:23;;;;;;;6.60;6.10;;;15.10;99.90;;;;;;5075943;28;20453;-75
2022/07/07 08:37:50;;;;;;;5.80;5.40;;;15.10;99.90;;;;;;5074672;28;20522;-75
2022/07/07 08:40:17;;;;;;;5.87;5.53;;;15.20;99.90;;;;;;5073993;28;20555;-75
2022/07/07 08:42:44;;;;;;;6.47;5.87;;;15.00;99.90;;;;;;5074352;28;20445;-74
2022/07/07 08:45:11;;;;;;;6.17;5.63;;;15.00;99.90;;;;;;5075112;28;20520;-75
2022/07/07 08:47:39;;;;;;;6.73;5.90;;;15.10;99.90;;;;;;5074127;28;20487;-74
2022/07/07 08:50:07;;;;;;;6.57;6.00;;;15.00;99.90;;;;;;5073795;28;20456;-74
2022/07/07 08:52:34;;;;;;;6.97;6.47;;;15.20;99.90;;;;;;5073735;28;20453;-75
2022/07/07 08:55:02;;;;;;;6.30;5.90;;;15.20;99.90;;;;;;5073896;28;20449;-76
2022/07/07 08:57:28;;;;;;;6.37;5.77;;;15.30;99.90;;;;;;5073768;28;20421;-76
2022/07/07 08:59:56;;;;;;;6.60;6.10;;;15.20;99.90;;;;;;5074160;28;20429;-75
2022/07/07 09:02:24;;;;;;;8.73;5.87;;;15.20;99.90;;;;;;5074094;28;20479;-76
2022/07/07 09:04:52;;;;;;;6.70;6.20;;;15.30;99.90;;;;;;5074126;28;20449;-75
2022/07/07 09:07:20;;;;;;;5.57;5.17;;;15.50;99.90;;;;;;5073818;28;20485;-75
2022/07/07 09:09:49;;;;;;;6.73;6.10;;;15.50;99.90;;;;;;5073902;28;20448;-76
2022/07/07 09:12:18;;;;;;;6.13;5.40;;;15.70;99.90;;;;;;5073903;28;20465;-75
2022/07/07 09:14:46;;;;;;;5.07;4.57;;;15.30;99.90;;;;;;5074196;28;20445;-75
2022/07/07 09:17:27;;;;;;;5.57;5.17;;;15.60;99.90;;;;;;5074727;28;20415;-75
2022/07/07 09:20:05;;;;;;;6.60;5.20;;;15.60;99.90;;;;;;5073676;28;20433;-76
2022/07/07 09:22:48;;;;;;;5.43;4.93;;;15.70;99.90;;;;;;5074794;28;20459;-75
2022/07/07 09:25:17;;;;;;;5.10;4.73;;;15.70;99.90;;;;;;5073606;28;20449;-76
2022/07/07 09:27:53;;;;;;;6.60;5.23;;;15.70;99.90;;;;;;5074315;28;20515;-75
2022/07/07 09:30:32;;;;;;;7.60;6.90;;;15.70;99.90;;;;;;5073046;28;20433;-75
2022/07/07 09:33:01;;;;;;;6.73;6.13;;;15.70;99.90;;;;;;5073062;28;20521;-75
2022/07/07 09:38:16;;;;;;;5.37;5.00;;;15.70;99.90;;;;;;5073569;28;20408;-75
2022/07/07 09:40:55;;;;;;;4.80;4.50;;;15.70;99.90;;;;;;5073248;28;20568;-75
2022/07/07 09:43:22;;;;;;;4.33;4.03;;;15.80;99.90;;;;;;5073171;28;20532;-75
2022/07/07 09:46:05;;;;;;;5.23;4.73;;;15.80;99.90;;;;;;5073386;28;20440;-75
2022/07/07 09:48:32;;;;;;;5.17;4.77;;;15.80;99.90;;;;;;5073313;28;20429;-75
2022/07/07 09:51:12;;;;;;;6.00;5.60;;;15.80;99.90;;;;;;5096741;22;20515;-75
2022/07/07 09:54:03;;;;;;;5.93;5.57;;;15.80;99.90;;;;;;5072687;28;20439;-75
2022/07/07 09:56:31;;;;;;;5.70;5.30;;;15.90;99.90;;;;;;5072504;28;20479;-74
2022/07/07 09:58:59;;;;;;;4.87;4.57;;;16.00;99.90;;;;;;5072372;28;20463;-75
2022/07/07 10:01:28;;;;;;;4.27;4.00;;;16.00;99.90;;;;;;5072555;28;20443;-75
2022/07/07 10:03:59;;;;;;;6.00;5.50;;;16.00;99.90;;;;;;5072889;28;20448;-74
2022/07/07 10:06:29;;;;;;;8.07;7.27;;;16.00;99.90;;;;;;5073460;28;20473;-75
2022/07/07 10:08:58;;;;;;;7.70;6.90;;;16.00;99.90;;;;;;5073407;28;20448;-75
2022/07/07 10:11:35;;;;;;;5.20;4.80;;;16.00;99.90;;;;;;5071808;28;20476;-75
2022/07/07 10:14:10;;;;;;;5.20;4.90;;;16.10;99.90;;;;;;5072371;28;20459;-75
2022/07/07 10:16:38;;;;;;;5.60;5.20;;;16.10;99.90;;;;;;5071918;28;20882;-75
2022/07/07 10:19:05;;;;;;;5.17;4.77;;;16.10;99.90;;;;;;5072295;28;20822;-76
2022/07/07 10:21:33;;;;;;;8.00;5.70;;;16.10;99.90;;;;;;5071968;28;20547;-75
2022/07/07 10:24:00;;;;;;;8.17;5.53;;;16.20;99.90;;;;;;5071874;28;20452;-75
2022/07/07 10:26:38;;;;;;;5.10;4.80;;;16.20;99.90;;;;;;5071811;28;20842;-74
2022/07/07 10:29:05;;;;;;;5.30;5.00;;;16.30;99.90;;;;;;5071995;28;20490;-74
2022/07/07 10:31:32;;;;;;;7.70;5.80;;;16.30;99.90;;;;;;5072210;28;20465;-74
2022/07/07 10:34:02;;;;;;;5.87;5.47;;;16.30;99.90;;;;;;5071687;28;20451;-76
2022/07/07 10:37:03;;;;;;;7.00;5.27;;;16.30;99.90;;;;;;5071618;28;20558;-75
2022/07/07 10:39:34;;;;;;;6.63;6.13;;;16.30;99.90;;;;;;5071659;28;21009;-74
2022/07/07 10:42:06;;;;;;;6.53;5.97;;;16.30;99.90;;;;;;5071873;28;20472;-75
2022/07/07 10:44:34;;;;;;;6.70;6.20;;;16.40;99.90;;;;;;5073930;28;20846;-74
2022/07/07 10:47:04;;;;;;;7.40;6.80;;;16.50;99.90;;;;;;5075884;28;20491;-75
2022/07/07 10:49:39;;;;;;;7.70;7.10;;;16.50;99.90;;;;;;5075643;28;20519;-75
2022/07/07 10:52:11;;;;;;;7.20;6.70;;;16.50;99.90;;;;;;5075091;28;20480;-74
2022/07/07 10:54:40;;;;;;;7.17;6.57;;;16.60;99.90;;;;;;5075320;28;20968;-75
2022/07/07 10:57:12;;;;;;;8.23;7.43;;;16.70;99.90;;;;;;5075327;28;20859;-75
2022/07/07 11:00:07;;;;;;;14.40;11.40;;;16.60;99.90;;;;;;5075430;28;20513;-75
2022/07/07 11:02:36;;;;;;;7.27;6.77;;;16.60;99.90;;;;;;5052212;28;20512;-74
2022/07/07 11:05:04;;;;;;;7.30;6.80;;;16.50;99.90;;;;;;5074988;28;20996;-75
2022/07/07 11:07:32;;;;;;;8.40;7.73;;;16.40;99.90;;;;;;5075347;28;20835;-75
2022/07/07 11:10:01;;;;;;;8.80;8.03;;;16.30;99.90;;;;;;5075406;28;20448;-75
2022/07/07 11:12:35;;;;;;;8.70;8.10;;;16.30;99.90;;;;;;5075327;28;20468;-74
2022/07/07 11:15:37;;;;;;;10.83;9.83;;;16.30;99.90;;;;;;5077055;28;20479;-75
2022/07/07 11:18:11;;;;;;;10.20;8.63;;;16.20;99.90;;;;;;5077050;28;20436;-74
2022/07/07 11:21:00;;;;;;;10.43;9.60;;;16.30;99.90;;;;;;5077229;28;20902;-74
2022/07/07 11:23:42;;;;;;;12.27;11.10;;;16.30;99.90;;;;;;5076065;28;20445;-75
2022/07/07 11:26:09;;;;;;;11.60;10.60;;;16.30;99.90;;;;;;5077107;28;20483;-74
2022/07/07 11:28:37;;;;;;;14.53;11.00;;;16.30;99.90;;;;;;5076233;28;20524;-74
2022/07/07 11:31:06;;;;;;;12.93;11.63;;;16.30;99.90;;;;;;5075331;28;20471;-75
2022/07/07 11:33:34;;;;;;;10.70;9.90;;;16.40;99.90;;;;;;5075208;28;20499;-74
2022/07/07 11:36:12;;;;;;;11.10;10.20;;;16.40;99.90;;;;;;5076317;28;20460;-75
2022/07/07 11:38:41;;;;;;;11.40;10.40;;;16.40;99.90;;;;;;5075314;28;20437;-75
2022/07/07 11:41:08;;;;;;;12.43;11.27;;;16.40;99.90;;;;;;5076055;28;20552;-75
2022/07/07 11:43:35;;;;;;;12.70;11.70;;;16.40;99.90;;;;;;5075153;28;20448;-75
2022/07/07 11:46:01;;;;;;;12.57;11.47;;;16.40;99.90;;;;;;5076420;28;20432;-74
2022/07/07 11:48:37;;;;;;;12.73;11.60;;;16.50;99.90;;;;;;5080513;28;20469;-75
2022/07/07 11:51:04;;;;;;;13.27;12.17;;;16.50;99.90;;;;;;5079134;28;20555;-74
2022/07/07 11:53:31;;;;;;;21.40;19.10;;;16.50;99.90;;;;;;5076031;28;20795;-75
2022/07/07 11:55:59;;;;;;;15.30;13.80;;;16.50;99.90;;;;;;5075181;28;20429;-74
2022/07/07 11:58:26;;;;;;;14.37;13.03;;;16.60;99.90;;;;;;5074340;28;20429;-74
2022/07/07 12:00:54;;;;;;;13.43;12.27;;;16.40;99.90;;;;;;5075196;28;20801;-74
2022/07/07 12:03:29;;;;;;;14.20;12.90;;;16.60;99.90;;;;;;5074387;28;20441;-75
2022/07/07 12:05:56;;;;;;;14.40;13.20;;;16.70;99.90;;;;;;5075777;28;20515;-75
2022/07/07 12:08:22;;;;;;;13.70;12.53;;;16.80;99.90;;;;;;5074203;28;20588;-75
2022/07/07 12:10:51;;;;;;;14.17;12.77;;;17.00;99.90;;;;;;5074461;28;20448;-75
2022/07/07 12:13:20;;;;;;;12.30;11.30;;;16.90;99.90;;;;;;5074640;28;20488;-75
2022/07/07 12:15:48;;;;;;;12.87;11.80;;;17.00;99.90;;;;;;5073857;28;20555;-76
2022/07/07 12:18:20;;;;;;;12.50;11.40;;;17.00;99.90;;;;;;5074451;28;20429;-75
2022/07/07 12:20:57;;;;;;;10.37;9.57;;;17.00;99.90;;;;;;5074242;28;20767;-75
2022/07/07 12:23:24;;;;;;;10.97;10.13;;;17.30;99.90;;;;;;5074177;28;20776;-75
2022/07/07 12:25:51;;;;;;;12.77;11.63;;;17.30;99.90;;;;;;5073803;28;20940;-75
2022/07/07 12:28:19;;;;;;;11.20;10.30;;;17.40;99.90;;;;;;5073736;28;20472;-75
2022/07/07 12:30:54;;;;;;;9.87;9.07;;;17.50;99.90;;;;;;5073243;28;20974;-76
2022/07/07 12:33:29;;;;;;;10.00;9.30;;;17.60;99.90;;;;;;5074044;28;20627;-75
2022/07/07 12:35:59;;;;;;;9.23;8.43;;;17.70;99.90;;;;;;5073988;28;20448;-76
2022/07/07 12:38:36;;;;;;;11.80;10.60;;;17.70;99.90;;;;;;5074117;28;20426;-76
2022/07/07 12:41:03;;;;;;;11.33;9.90;;;17.90;99.90;;;;;;5073631;28;20967;-75
2022/07/07 12:43:34;;;;;;;10.57;9.77;;;18.20;99.90;;;;;;5073582;28;20441;-74
2022/07/07 12:46:11;;;;;;;9.47;8.73;;;18.40;99.90;;;;;;5073440;28;20559;-74
2022/07/07 12:48:47;;;;;;;11.73;10.53;;;18.60;99.90;;;;;;5073538;28;20468;-74
2022/07/07 12:51:13;;;;;;;9.40;8.73;;;18.80;99.90;;;;;;5073501;28;20488;-75
2022/07/07 12:53:42;;;;;;;8.07;7.30;;;19.10;99.90;;;;;;5073962;28;20433;-75
2022/07/07 12:56:12;;;;;;;8.80;8.20;;;19.40;99.90;;;;;;5073853;28;20452;-75